sensor_id;sensor_type;location;lat;lon;timestamp;P1;durP1;ratioP1;P2;durP2;ratioP2
45402;SDS011;47427;51.976;5.326;2024-03-25T00:02:44;41.05;;;11.98;;
45402;SDS011;47427;51.976;5.326;2024-03-25T00:05:47;30.35;;;9.93;;
45402;SDS011;47427;51.976;5.326;2024-03-25T00:08:50;41.75;;;11.82;;
45402;SDS011;47427;51.976;5.326;2024-03-25T00:11:53;35.13;;;10.77;;
45402;SDS011;47427;51.976;5.326;2024-03-25T00:14:56;35.00;;;11.40;;
45402;SDS011;47427;51.976;5.326;2024-03-25T00:17:59;40.33;;;11.95;;
45402;SDS011;47427;51.976;5.326;2024-03-25T00:21:01;36.55;;;11.48;;
45402;SDS011;47427;51.976;5.326;2024-03-25T00:24:04;36.88;;;13.07;;
45402;SDS011;47427;51.976;5.326;2024-03-25T00:27:07;40.95;;;11.60;;
45402;SDS011;47427;51.976;5.326;2024-03-25T00:30:10;36.83;;;12.18;;
45402;SDS011;47427;51.976;5.326;2024-03-25T00:33:14;40.33;;;10.38;;
45402;SDS011;47427;51.976;5.326;2024-03-25T00:36:17;35.50;;;11.82;;
45402;SDS011;47427;51.976;5.326;2024-03-25T00:39:20;23.38;;;9.73;;
45402;SDS011;47427;51.976;5.326;2024-03-25T00:42:42;68.05;;;12.75;;
45402;SDS011;47427;51.976;5.326;2024-03-25T00:45:44;37.75;;;12.40;;
45402;SDS011;47427;51.976;5.326;2024-03-25T00:48:45;49.25;;;12.18;;
45402;SDS011;47427;51.976;5.326;2024-03-25T00:51:48;40.03;;;11.13;;
45402;SDS011;47427;51.976;5.326;2024-03-25T00:54:51;30.60;;;10.07;;
45402;SDS011;47427;51.976;5.326;2024-03-25T00:57:54;34.80;;;11.60;;
45402;SDS011;47427;51.976;5.326;2024-03-25T01:00:56;30.00;;;10.65;;
45402;SDS011;47427;51.976;5.326;2024-03-25T01:03:58;48.38;;;12.88;;
45402;SDS011;47427;51.976;5.326;2024-03-25T01:07:01;41.20;;;11.00;;
45402;SDS011;47427;51.976;5.326;2024-03-25T01:10:05;35.60;;;10.77;;
45402;SDS011;47427;51.976;5.326;2024-03-25T01:13:08;30.58;;;10.57;;
45402;SDS011;47427;51.976;5.326;2024-03-25T01:16:32;32.47;;;11.65;;
45402;SDS011;47427;51.976;5.326;2024-03-25T01:19:35;46.00;;;11.15;;
45402;SDS011;47427;51.976;5.326;2024-03-25T01:22:39;30.25;;;10.68;;
45402;SDS011;47427;51.976;5.326;2024-03-25T01:25:40;23.45;;;10.18;;
45402;SDS011;47427;51.976;5.326;2024-03-25T01:28:43;38.60;;;11.27;;
45402;SDS011;47427;51.976;5.326;2024-03-25T01:32:04;29.65;;;11.52;;
45402;SDS011;47427;51.976;5.326;2024-03-25T01:35:06;31.23;;;9.77;;
45402;SDS011;47427;51.976;5.326;2024-03-25T01:38:09;35.88;;;11.02;;
45402;SDS011;47427;51.976;5.326;2024-03-25T01:41:12;46.90;;;11.38;;
45402;SDS011;47427;51.976;5.326;2024-03-25T01:44:18;33.65;;;10.65;;
45402;SDS011;47427;51.976;5.326;2024-03-25T01:47:21;40.20;;;10.95;;
45402;SDS011;47427;51.976;5.326;2024-03-25T01:50:24;39.10;;;11.18;;
45402;SDS011;47427;51.976;5.326;2024-03-25T01:53:30;30.40;;;8.90;;
45402;SDS011;47427;51.976;5.326;2024-03-25T01:56:34;23.23;;;9.10;;
45402;SDS011;47427;51.976;5.326;2024-03-25T01:59:37;35.05;;;9.23;;
45402;SDS011;47427;51.976;5.326;2024-03-25T02:02:41;31.00;;;10.15;;
45402;SDS011;47427;51.976;5.326;2024-03-25T02:05:46;24.77;;;10.05;;
45402;SDS011;47427;51.976;5.326;2024-03-25T02:08:52;38.53;;;10.23;;
45402;SDS011;47427;51.976;5.326;2024-03-25T02:11:55;41.47;;;9.40;;
45402;SDS011;47427;51.976;5.326;2024-03-25T02:14:58;31.20;;;9.93;;
45402;SDS011;47427;51.976;5.326;2024-03-25T02:18:01;28.15;;;11.30;;
45402;SDS011;47427;51.976;5.326;2024-03-25T02:21:04;23.10;;;9.70;;
45402;SDS011;47427;51.976;5.326;2024-03-25T02:24:09;47.10;;;10.75;;
45402;SDS011;47427;51.976;5.326;2024-03-25T02:27:14;36.88;;;11.65;;
45402;SDS011;47427;51.976;5.326;2024-03-25T02:30:16;35.05;;;11.20;;
45402;SDS011;47427;51.976;5.326;2024-03-25T02:33:19;34.25;;;10.90;;
45402;SDS011;47427;51.976;5.326;2024-03-25T02:39:44;45.60;;;11.32;;
45402;SDS011;47427;51.976;5.326;2024-03-25T02:42:47;31.63;;;10.63;;
45402;SDS011;47427;51.976;5.326;2024-03-25T02:45:51;34.28;;;11.88;;
45402;SDS011;47427;51.976;5.326;2024-03-25T02:48:52;32.92;;;11.63;;
45402;SDS011;47427;51.976;5.326;2024-03-25T02:51:55;25.10;;;10.50;;
45402;SDS011;47427;51.976;5.326;2024-03-25T02:54:58;39.08;;;11.93;;
45402;SDS011;47427;51.976;5.326;2024-03-25T02:58:01;31.67;;;11.50;;
45402;SDS011;47427;51.976;5.326;2024-03-25T03:01:02;32.67;;;9.85;;
45402;SDS011;47427;51.976;5.326;2024-03-25T03:04:05;30.77;;;11.30;;
45402;SDS011;47427;51.976;5.326;2024-03-25T03:07:08;29.75;;;9.63;;
45402;SDS011;47427;51.976;5.326;2024-03-25T03:10:11;27.92;;;10.23;;
45402;SDS011;47427;51.976;5.326;2024-03-25T03:13:12;33.70;;;11.25;;
45402;SDS011;47427;51.976;5.326;2024-03-25T03:16:15;33.67;;;10.32;;
45402;SDS011;47427;51.976;5.326;2024-03-25T03:19:18;43.40;;;12.57;;
45402;SDS011;47427;51.976;5.326;2024-03-25T03:22:21;39.72;;;11.98;;
45402;SDS011;47427;51.976;5.326;2024-03-25T03:25:22;38.92;;;10.27;;
45402;SDS011;47427;51.976;5.326;2024-03-25T03:28:25;31.05;;;10.65;;
45402;SDS011;47427;51.976;5.326;2024-03-25T03:31:30;28.13;;;11.95;;
45402;SDS011;47427;51.976;5.326;2024-03-25T03:34:32;27.67;;;11.20;;
45402;SDS011;47427;51.976;5.326;2024-03-25T03:37:34;29.23;;;10.73;;
45402;SDS011;47427;51.976;5.326;2024-03-25T03:40:37;30.15;;;11.48;;
45402;SDS011;47427;51.976;5.326;2024-03-25T03:43:39;27.15;;;10.75;;
45402;SDS011;47427;51.976;5.326;2024-03-25T03:46:42;28.50;;;13.23;;
45402;SDS011;47427;51.976;5.326;2024-03-25T03:49:44;32.17;;;11.63;;
45402;SDS011;47427;51.976;5.326;2024-03-25T03:52:47;31.17;;;12.32;;
45402;SDS011;47427;51.976;5.326;2024-03-25T03:55:56;24.98;;;10.45;;
45402;SDS011;47427;51.976;5.326;2024-03-25T03:59:00;31.08;;;12.32;;
45402;SDS011;47427;51.976;5.326;2024-03-25T04:02:02;33.00;;;12.18;;
45402;SDS011;47427;51.976;5.326;2024-03-25T04:05:05;21.10;;;11.15;;
45402;SDS011;47427;51.976;5.326;2024-03-25T04:08:08;38.28;;;12.43;;
45402;SDS011;47427;51.976;5.326;2024-03-25T04:11:11;27.88;;;11.68;;
45402;SDS011;47427;51.976;5.326;2024-03-25T04:14:13;29.95;;;12.63;;
45402;SDS011;47427;51.976;5.326;2024-03-25T04:17:15;41.40;;;13.55;;
45402;SDS011;47427;51.976;5.326;2024-03-25T04:20:19;42.70;;;13.70;;
45402;SDS011;47427;51.976;5.326;2024-03-25T04:23:21;39.20;;;13.18;;
45402;SDS011;47427;51.976;5.326;2024-03-25T04:26:24;30.63;;;12.27;;
45402;SDS011;47427;51.976;5.326;2024-03-25T04:29:27;31.98;;;12.88;;
45402;SDS011;47427;51.976;5.326;2024-03-25T04:32:31;30.02;;;12.48;;
45402;SDS011;47427;51.976;5.326;2024-03-25T04:35:34;30.80;;;12.20;;
45402;SDS011;47427;51.976;5.326;2024-03-25T04:38:37;43.53;;;12.73;;
45402;SDS011;47427;51.976;5.326;2024-03-25T04:41:39;24.38;;;11.85;;
45402;SDS011;47427;51.976;5.326;2024-03-25T04:44:42;29.42;;;11.50;;
45402;SDS011;47427;51.976;5.326;2024-03-25T04:47:45;31.40;;;12.90;;
45402;SDS011;47427;51.976;5.326;2024-03-25T04:50:47;45.30;;;14.35;;
45402;SDS011;47427;51.976;5.326;2024-03-25T04:53:50;28.85;;;12.57;;
45402;SDS011;47427;51.976;5.326;2024-03-25T04:56:52;40.45;;;12.85;;
45402;SDS011;47427;51.976;5.326;2024-03-25T04:59:55;41.88;;;13.93;;
45402;SDS011;47427;51.976;5.326;2024-03-25T05:02:58;36.75;;;14.75;;
45402;SDS011;47427;51.976;5.326;2024-03-25T05:05:59;34.65;;;13.30;;
45402;SDS011;47427;51.976;5.326;2024-03-25T05:09:22;31.88;;;14.35;;
45402;SDS011;47427;51.976;5.326;2024-03-25T05:12:43;37.92;;;15.45;;
45402;SDS011;47427;51.976;5.326;2024-03-25T05:15:52;33.75;;;14.50;;
45402;SDS011;47427;51.976;5.326;2024-03-25T05:18:55;47.55;;;15.27;;
45402;SDS011;47427;51.976;5.326;2024-03-25T05:21:58;29.50;;;13.60;;
45402;SDS011;47427;51.976;5.326;2024-03-25T05:25:00;43.25;;;15.25;;
45402;SDS011;47427;51.976;5.326;2024-03-25T05:28:03;41.67;;;15.77;;
45402;SDS011;47427;51.976;5.326;2024-03-25T05:31:07;40.35;;;16.13;;
45402;SDS011;47427;51.976;5.326;2024-03-25T05:34:10;44.93;;;16.07;;
45402;SDS011;47427;51.976;5.326;2024-03-25T05:37:15;42.38;;;17.27;;
45402;SDS011;47427;51.976;5.326;2024-03-25T05:40:16;35.35;;;16.02;;
45402;SDS011;47427;51.976;5.326;2024-03-25T05:43:19;36.28;;;16.38;;
45402;SDS011;47427;51.976;5.326;2024-03-25T05:46:22;39.28;;;16.00;;
45402;SDS011;47427;51.976;5.326;2024-03-25T05:49:25;37.55;;;15.60;;
45402;SDS011;47427;51.976;5.326;2024-03-25T05:52:28;39.10;;;17.17;;
45402;SDS011;47427;51.976;5.326;2024-03-25T05:55:49;40.92;;;17.30;;
45402;SDS011;47427;51.976;5.326;2024-03-25T05:58:51;29.02;;;16.52;;
45402;SDS011;47427;51.976;5.326;2024-03-25T06:01:53;42.33;;;17.00;;
45402;SDS011;47427;51.976;5.326;2024-03-25T06:04:56;37.90;;;18.05;;
45402;SDS011;47427;51.976;5.326;2024-03-25T06:07:58;41.00;;;16.92;;
45402;SDS011;47427;51.976;5.326;2024-03-25T06:11:01;33.63;;;14.85;;
45402;SDS011;47427;51.976;5.326;2024-03-25T06:14:03;57.58;;;18.42;;
45402;SDS011;47427;51.976;5.326;2024-03-25T06:17:06;48.38;;;16.85;;
45402;SDS011;47427;51.976;5.326;2024-03-25T06:20:09;41.38;;;16.15;;
45402;SDS011;47427;51.976;5.326;2024-03-25T06:23:25;42.63;;;16.60;;
45402;SDS011;47427;51.976;5.326;2024-03-25T06:26:29;33.50;;;15.90;;
45402;SDS011;47427;51.976;5.326;2024-03-25T06:29:30;34.47;;;16.17;;
45402;SDS011;47427;51.976;5.326;2024-03-25T06:32:33;35.42;;;16.77;;
45402;SDS011;47427;51.976;5.326;2024-03-25T06:35:55;34.50;;;17.23;;
45402;SDS011;47427;51.976;5.326;2024-03-25T06:38:57;33.50;;;16.02;;
45402;SDS011;47427;51.976;5.326;2024-03-25T06:41:59;38.20;;;15.75;;
45402;SDS011;47427;51.976;5.326;2024-03-25T06:45:02;39.58;;;16.25;;
45402;SDS011;47427;51.976;5.326;2024-03-25T06:48:05;32.03;;;15.38;;
45402;SDS011;47427;51.976;5.326;2024-03-25T06:51:08;33.28;;;15.80;;
45402;SDS011;47427;51.976;5.326;2024-03-25T06:54:09;45.90;;;19.63;;
45402;SDS011;47427;51.976;5.326;2024-03-25T06:57:31;36.53;;;19.48;;
45402;SDS011;47427;51.976;5.326;2024-03-25T07:00:34;30.60;;;16.75;;
45402;SDS011;47427;51.976;5.326;2024-03-25T07:03:37;34.67;;;16.48;;
45402;SDS011;47427;51.976;5.326;2024-03-25T07:06:39;37.85;;;16.30;;
45402;SDS011;47427;51.976;5.326;2024-03-25T07:09:42;39.70;;;18.25;;
45402;SDS011;47427;51.976;5.326;2024-03-25T07:12:45;32.30;;;17.45;;
45402;SDS011;47427;51.976;5.326;2024-03-25T07:15:48;39.97;;;18.52;;
45402;SDS011;47427;51.976;5.326;2024-03-25T07:18:50;35.65;;;17.55;;
45402;SDS011;47427;51.976;5.326;2024-03-25T07:21:52;31.67;;;19.13;;
45402;SDS011;47427;51.976;5.326;2024-03-25T07:24:55;32.17;;;17.67;;
45402;SDS011;47427;51.976;5.326;2024-03-25T07:27:58;27.30;;;16.23;;
45402;SDS011;47427;51.976;5.326;2024-03-25T07:31:00;27.98;;;17.80;;
45402;SDS011;47427;51.976;5.326;2024-03-25T07:34:02;25.48;;;15.13;;
45402;SDS011;47427;51.976;5.326;2024-03-25T07:37:05;26.02;;;15.77;;
45402;SDS011;47427;51.976;5.326;2024-03-25T07:40:08;29.30;;;15.07;;
45402;SDS011;47427;51.976;5.326;2024-03-25T07:43:10;32.08;;;15.05;;
45402;SDS011;47427;51.976;5.326;2024-03-25T07:46:13;28.35;;;16.67;;
45402;SDS011;47427;51.976;5.326;2024-03-25T07:49:18;35.10;;;15.30;;
45402;SDS011;47427;51.976;5.326;2024-03-25T07:52:21;26.38;;;15.57;;
45402;SDS011;47427;51.976;5.326;2024-03-25T07:55:22;33.85;;;16.58;;
45402;SDS011;47427;51.976;5.326;2024-03-25T07:58:25;27.80;;;17.35;;
45402;SDS011;47427;51.976;5.326;2024-03-25T08:01:28;27.88;;;15.50;;
45402;SDS011;47427;51.976;5.326;2024-03-25T08:04:31;29.83;;;15.48;;
45402;SDS011;47427;51.976;5.326;2024-03-25T08:07:32;28.25;;;15.73;;
45402;SDS011;47427;51.976;5.326;2024-03-25T08:10:36;27.13;;;15.05;;
45402;SDS011;47427;51.976;5.326;2024-03-25T08:13:39;29.77;;;15.37;;
45402;SDS011;47427;51.976;5.326;2024-03-25T08:16:42;33.88;;;15.73;;
45402;SDS011;47427;51.976;5.326;2024-03-25T08:19:44;31.65;;;14.85;;
45402;SDS011;47427;51.976;5.326;2024-03-25T08:22:48;28.10;;;14.07;;
45402;SDS011;47427;51.976;5.326;2024-03-25T08:25:51;31.65;;;14.55;;
45402;SDS011;47427;51.976;5.326;2024-03-25T08:28:53;23.58;;;14.93;;
45402;SDS011;47427;51.976;5.326;2024-03-25T08:31:55;23.73;;;14.60;;
45402;SDS011;47427;51.976;5.326;2024-03-25T08:35:00;31.27;;;15.35;;
45402;SDS011;47427;51.976;5.326;2024-03-25T08:38:03;26.05;;;13.80;;
45402;SDS011;47427;51.976;5.326;2024-03-25T08:41:06;39.30;;;16.27;;
45402;SDS011;47427;51.976;5.326;2024-03-25T08:44:08;26.15;;;15.70;;
45402;SDS011;47427;51.976;5.326;2024-03-25T08:47:10;30.40;;;16.33;;
45402;SDS011;47427;51.976;5.326;2024-03-25T08:50:13;26.90;;;14.43;;
45402;SDS011;47427;51.976;5.326;2024-03-25T08:53:16;21.65;;;13.18;;
45402;SDS011;47427;51.976;5.326;2024-03-25T08:56:18;26.77;;;14.23;;
45402;SDS011;47427;51.976;5.326;2024-03-25T08:59:39;29.25;;;14.57;;
45402;SDS011;47427;51.976;5.326;2024-03-25T09:02:40;24.40;;;14.60;;
45402;SDS011;47427;51.976;5.326;2024-03-25T09:05:43;22.92;;;14.45;;
45402;SDS011;47427;51.976;5.326;2024-03-25T09:08:45;27.00;;;14.05;;
45402;SDS011;47427;51.976;5.326;2024-03-25T09:12:06;25.10;;;12.82;;
45402;SDS011;47427;51.976;5.326;2024-03-25T09:15:09;27.58;;;13.10;;
45402;SDS011;47427;51.976;5.326;2024-03-25T09:18:12;28.85;;;12.38;;
45402;SDS011;47427;51.976;5.326;2024-03-25T09:21:14;28.33;;;11.93;;
45402;SDS011;47427;51.976;5.326;2024-03-25T09:24:17;24.05;;;12.80;;
45402;SDS011;47427;51.976;5.326;2024-03-25T09:27:21;23.77;;;12.68;;
45402;SDS011;47427;51.976;5.326;2024-03-25T09:30:24;22.77;;;12.23;;
45402;SDS011;47427;51.976;5.326;2024-03-25T09:33:25;26.35;;;10.85;;
45402;SDS011;47427;51.976;5.326;2024-03-25T09:36:28;23.20;;;10.63;;
45402;SDS011;47427;51.976;5.326;2024-03-25T09:39:31;22.63;;;10.23;;
45402;SDS011;47427;51.976;5.326;2024-03-25T09:42:35;23.02;;;12.30;;
45402;SDS011;47427;51.976;5.326;2024-03-25T09:45:52;19.00;;;11.65;;
45402;SDS011;47427;51.976;5.326;2024-03-25T09:48:57;26.27;;;10.45;;
45402;SDS011;47427;51.976;5.326;2024-03-25T09:52:00;24.45;;;12.38;;
45402;SDS011;47427;51.976;5.326;2024-03-25T09:55:03;19.88;;;11.40;;
45402;SDS011;47427;51.976;5.326;2024-03-25T09:58:06;20.23;;;10.90;;
45402;SDS011;47427;51.976;5.326;2024-03-25T10:01:10;22.45;;;10.57;;
45402;SDS011;47427;51.976;5.326;2024-03-25T10:04:12;20.80;;;9.93;;
45402;SDS011;47427;51.976;5.326;2024-03-25T10:07:21;18.70;;;10.45;;
45402;SDS011;47427;51.976;5.326;2024-03-25T10:10:28;16.42;;;10.52;;
45402;SDS011;47427;51.976;5.326;2024-03-25T10:13:30;17.88;;;9.80;;
45402;SDS011;47427;51.976;5.326;2024-03-25T10:16:33;16.70;;;10.68;;
45402;SDS011;47427;51.976;5.326;2024-03-25T10:19:35;18.60;;;11.52;;
45402;SDS011;47427;51.976;5.326;2024-03-25T10:22:44;19.58;;;12.63;;
45402;SDS011;47427;51.976;5.326;2024-03-25T10:25:48;15.60;;;11.13;;
45402;SDS011;47427;51.976;5.326;2024-03-25T10:29:04;14.35;;;11.10;;
45402;SDS011;47427;51.976;5.326;2024-03-25T10:32:11;16.73;;;11.10;;
45402;SDS011;47427;51.976;5.326;2024-03-25T10:35:16;18.45;;;10.30;;
45402;SDS011;47427;51.976;5.326;2024-03-25T10:38:19;19.67;;;11.38;;
45402;SDS011;47427;51.976;5.326;2024-03-25T10:41:22;23.85;;;12.70;;
45402;SDS011;47427;51.976;5.326;2024-03-25T10:44:27;13.30;;;10.07;;
45402;SDS011;47427;51.976;5.326;2024-03-25T10:47:32;12.80;;;10.55;;
45402;SDS011;47427;51.976;5.326;2024-03-25T10:50:34;18.42;;;10.35;;
45402;SDS011;47427;51.976;5.326;2024-03-25T10:53:38;18.88;;;10.68;;
45402;SDS011;47427;51.976;5.326;2024-03-25T10:56:41;17.45;;;10.48;;
45402;SDS011;47427;51.976;5.326;2024-03-25T10:59:44;16.55;;;10.20;;
45402;SDS011;47427;51.976;5.326;2024-03-25T11:02:48;12.05;;;9.65;;
45402;SDS011;47427;51.976;5.326;2024-03-25T11:05:53;18.05;;;10.25;;
45402;SDS011;47427;51.976;5.326;2024-03-25T11:08:58;14.07;;;10.52;;
45402;SDS011;47427;51.976;5.326;2024-03-25T11:12:01;12.77;;;10.80;;
45402;SDS011;47427;51.976;5.326;2024-03-25T11:15:05;13.63;;;10.18;;
45402;SDS011;47427;51.976;5.326;2024-03-25T11:21:23;14.02;;;9.90;;
45402;SDS011;47427;51.976;5.326;2024-03-25T11:24:30;11.55;;;9.27;;
45402;SDS011;47427;51.976;5.326;2024-03-25T11:27:36;13.43;;;10.23;;
45402;SDS011;47427;51.976;5.326;2024-03-25T11:30:39;14.40;;;11.93;;
45402;SDS011;47427;51.976;5.326;2024-03-25T11:33:42;14.45;;;12.10;;
45402;SDS011;47427;51.976;5.326;2024-03-25T11:36:43;12.38;;;11.07;;
45402;SDS011;47427;51.976;5.326;2024-03-25T11:39:46;14.25;;;10.13;;
45402;SDS011;47427;51.976;5.326;2024-03-25T11:42:49;11.25;;;9.27;;
45402;SDS011;47427;51.976;5.326;2024-03-25T11:45:50;9.35;;;7.95;;
45402;SDS011;47427;51.976;5.326;2024-03-25T11:48:55;14.07;;;9.77;;
45402;SDS011;47427;51.976;5.326;2024-03-25T11:51:59;9.45;;;8.43;;
45402;SDS011;47427;51.976;5.326;2024-03-25T11:55:01;13.15;;;8.90;;
45402;SDS011;47427;51.976;5.326;2024-03-25T11:58:07;11.43;;;8.73;;
45402;SDS011;47427;51.976;5.326;2024-03-25T12:01:10;11.38;;;8.60;;
45402;SDS011;47427;51.976;5.326;2024-03-25T12:04:16;13.57;;;8.55;;
45402;SDS011;47427;51.976;5.326;2024-03-25T12:07:20;10.57;;;9.57;;
45402;SDS011;47427;51.976;5.326;2024-03-25T12:10:23;10.60;;;8.43;;
45402;SDS011;47427;51.976;5.326;2024-03-25T12:13:43;10.45;;;9.38;;
45402;SDS011;47427;51.976;5.326;2024-03-25T12:16:46;11.90;;;9.30;;
45402;SDS011;47427;51.976;5.326;2024-03-25T12:20:04;12.07;;;8.87;;
45402;SDS011;47427;51.976;5.326;2024-03-25T12:23:10;9.32;;;8.50;;
45402;SDS011;47427;51.976;5.326;2024-03-25T12:26:13;12.63;;;10.68;;
45402;SDS011;47427;51.976;5.326;2024-03-25T12:29:16;10.50;;;9.23;;
45402;SDS011;47427;51.976;5.326;2024-03-25T12:32:21;8.60;;;7.50;;
45402;SDS011;47427;51.976;5.326;2024-03-25T12:35:30;11.07;;;8.25;;
45402;SDS011;47427;51.976;5.326;2024-03-25T12:38:39;10.55;;;8.88;;
45402;SDS011;47427;51.976;5.326;2024-03-25T12:41:42;10.27;;;9.15;;
45402;SDS011;47427;51.976;5.326;2024-03-25T12:44:47;10.13;;;9.23;;
45402;SDS011;47427;51.976;5.326;2024-03-25T12:47:52;14.48;;;9.55;;
45402;SDS011;47427;51.976;5.326;2024-03-25T12:50:55;9.25;;;8.35;;
45402;SDS011;47427;51.976;5.326;2024-03-25T12:53:57;10.00;;;9.10;;
45402;SDS011;47427;51.976;5.326;2024-03-25T12:57:00;9.02;;;8.18;;
45402;SDS011;47427;51.976;5.326;2024-03-25T13:00:02;11.40;;;9.32;;
45402;SDS011;47427;51.976;5.326;2024-03-25T13:03:10;10.52;;;8.60;;
45402;SDS011;47427;51.976;5.326;2024-03-25T13:06:13;9.70;;;8.80;;
45402;SDS011;47427;51.976;5.326;2024-03-25T13:09:16;9.05;;;8.15;;
45402;SDS011;47427;51.976;5.326;2024-03-25T13:12:18;10.15;;;8.98;;
45402;SDS011;47427;51.976;5.326;2024-03-25T13:15:21;9.52;;;8.73;;
45402;SDS011;47427;51.976;5.326;2024-03-25T13:18:24;8.68;;;7.78;;
45402;SDS011;47427;51.976;5.326;2024-03-25T13:21:26;9.40;;;7.43;;
45402;SDS011;47427;51.976;5.326;2024-03-25T13:24:29;11.57;;;10.50;;
45402;SDS011;47427;51.976;5.326;2024-03-25T13:27:31;9.48;;;8.45;;
45402;SDS011;47427;51.976;5.326;2024-03-25T13:30:34;10.27;;;9.20;;
45402;SDS011;47427;51.976;5.326;2024-03-25T13:33:36;10.68;;;9.68;;
45402;SDS011;47427;51.976;5.326;2024-03-25T13:36:39;11.85;;;10.68;;
45402;SDS011;47427;51.976;5.326;2024-03-25T13:39:42;13.23;;;11.75;;
45402;SDS011;47427;51.976;5.326;2024-03-25T13:42:45;11.90;;;10.80;;
45402;SDS011;47427;51.976;5.326;2024-03-25T13:45:48;11.27;;;10.02;;
45402;SDS011;47427;51.976;5.326;2024-03-25T13:48:51;13.65;;;10.00;;
45402;SDS011;47427;51.976;5.326;2024-03-25T13:51:57;12.15;;;10.75;;
45402;SDS011;47427;51.976;5.326;2024-03-25T13:55:01;16.23;;;12.25;;
45402;SDS011;47427;51.976;5.326;2024-03-25T13:58:03;11.85;;;10.70;;
45402;SDS011;47427;51.976;5.326;2024-03-25T14:01:07;11.23;;;9.43;;
45402;SDS011;47427;51.976;5.326;2024-03-25T14:04:11;11.90;;;9.10;;
45402;SDS011;47427;51.976;5.326;2024-03-25T14:07:14;9.82;;;8.82;;
45402;SDS011;47427;51.976;5.326;2024-03-25T14:10:15;12.13;;;11.02;;
45402;SDS011;47427;51.976;5.326;2024-03-25T14:13:18;12.32;;;10.60;;
45402;SDS011;47427;51.976;5.326;2024-03-25T14:16:21;10.55;;;9.48;;
45402;SDS011;47427;51.976;5.326;2024-03-25T14:19:24;11.43;;;10.32;;
45402;SDS011;47427;51.976;5.326;2024-03-25T14:22:26;11.18;;;10.07;;
45402;SDS011;47427;51.976;5.326;2024-03-25T14:25:31;11.52;;;9.20;;
45402;SDS011;47427;51.976;5.326;2024-03-25T14:28:34;9.85;;;8.95;;
45402;SDS011;47427;51.976;5.326;2024-03-25T14:31:37;10.43;;;9.52;;
45402;SDS011;47427;51.976;5.326;2024-03-25T14:34:38;13.35;;;9.85;;
45402;SDS011;47427;51.976;5.326;2024-03-25T14:37:41;11.30;;;10.10;;
45402;SDS011;47427;51.976;5.326;2024-03-25T14:40:46;11.77;;;9.20;;
45402;SDS011;47427;51.976;5.326;2024-03-25T14:43:49;10.82;;;9.82;;
45402;SDS011;47427;51.976;5.326;2024-03-25T14:46:51;11.90;;;10.70;;
45402;SDS011;47427;51.976;5.326;2024-03-25T14:49:54;12.68;;;10.45;;
45402;SDS011;47427;51.976;5.326;2024-03-25T14:52:57;12.10;;;11.05;;
45402;SDS011;47427;51.976;5.326;2024-03-25T14:55:59;10.90;;;9.80;;
45402;SDS011;47427;51.976;5.326;2024-03-25T14:59:01;11.63;;;9.68;;
45402;SDS011;47427;51.976;5.326;2024-03-25T15:02:04;10.57;;;9.48;;
45402;SDS011;47427;51.976;5.326;2024-03-25T15:05:07;9.90;;;8.88;;
45402;SDS011;47427;51.976;5.326;2024-03-25T15:08:11;11.63;;;10.38;;
45402;SDS011;47427;51.976;5.326;2024-03-25T15:11:13;14.57;;;11.43;;
45402;SDS011;47427;51.976;5.326;2024-03-25T15:14:16;10.05;;;9.00;;
45402;SDS011;47427;51.976;5.326;2024-03-25T15:17:18;16.02;;;9.75;;
45402;SDS011;47427;51.976;5.326;2024-03-25T15:20:21;12.77;;;10.02;;
45402;SDS011;47427;51.976;5.326;2024-03-25T15:23:23;10.70;;;9.45;;
45402;SDS011;47427;51.976;5.326;2024-03-25T15:26:25;12.68;;;10.85;;
45402;SDS011;47427;51.976;5.326;2024-03-25T15:29:28;12.07;;;10.88;;
45402;SDS011;47427;51.976;5.326;2024-03-25T15:32:31;15.15;;;12.93;;
45402;SDS011;47427;51.976;5.326;2024-03-25T15:35:33;19.55;;;17.48;;
45402;SDS011;47427;51.976;5.326;2024-03-25T15:38:36;16.67;;;14.88;;
45402;SDS011;47427;51.976;5.326;2024-03-25T15:41:38;13.65;;;12.13;;
45402;SDS011;47427;51.976;5.326;2024-03-25T15:44:41;15.23;;;13.77;;
45402;SDS011;47427;51.976;5.326;2024-03-25T15:47:43;14.15;;;12.65;;
45402;SDS011;47427;51.976;5.326;2024-03-25T15:50:46;12.85;;;11.68;;
45402;SDS011;47427;51.976;5.326;2024-03-25T15:53:49;15.77;;;11.77;;
45402;SDS011;47427;51.976;5.326;2024-03-25T15:56:52;14.50;;;11.95;;
45402;SDS011;47427;51.976;5.326;2024-03-25T15:59:53;13.90;;;12.60;;
45402;SDS011;47427;51.976;5.326;2024-03-25T16:02:56;14.18;;;11.52;;
45402;SDS011;47427;51.976;5.326;2024-03-25T16:05:59;18.30;;;16.40;;
45402;SDS011;47427;51.976;5.326;2024-03-25T16:09:02;15.57;;;14.02;;
45402;SDS011;47427;51.976;5.326;2024-03-25T16:12:04;13.73;;;11.98;;
45402;SDS011;47427;51.976;5.326;2024-03-25T16:15:07;14.50;;;13.10;;
45402;SDS011;47427;51.976;5.326;2024-03-25T16:18:10;13.65;;;11.70;;
45402;SDS011;47427;51.976;5.326;2024-03-25T16:21:14;12.40;;;11.18;;
45402;SDS011;47427;51.976;5.326;2024-03-25T16:24:17;11.60;;;10.70;;
45402;SDS011;47427;51.976;5.326;2024-03-25T16:27:20;11.48;;;10.32;;
45402;SDS011;47427;51.976;5.326;2024-03-25T16:30:23;11.18;;;10.07;;
45402;SDS011;47427;51.976;5.326;2024-03-25T16:33:27;10.50;;;9.63;;
45402;SDS011;47427;51.976;5.326;2024-03-25T16:36:29;11.68;;;10.57;;
45402;SDS011;47427;51.976;5.326;2024-03-25T16:39:31;11.75;;;10.60;;
45402;SDS011;47427;51.976;5.326;2024-03-25T16:42:34;13.77;;;11.27;;
45402;SDS011;47427;51.976;5.326;2024-03-25T16:45:37;12.40;;;10.60;;
45402;SDS011;47427;51.976;5.326;2024-03-25T16:48:38;14.30;;;11.60;;
45402;SDS011;47427;51.976;5.326;2024-03-25T16:51:41;12.48;;;10.93;;
45402;SDS011;47427;51.976;5.326;2024-03-25T16:54:44;10.20;;;8.68;;
45402;SDS011;47427;51.976;5.326;2024-03-25T16:57:47;11.73;;;10.05;;
45402;SDS011;47427;51.976;5.326;2024-03-25T17:00:49;11.20;;;9.82;;
45402;SDS011;47427;51.976;5.326;2024-03-25T17:03:53;14.57;;;11.67;;
45402;SDS011;47427;51.976;5.326;2024-03-25T17:06:56;15.50;;;12.93;;
45402;SDS011;47427;51.976;5.326;2024-03-25T17:09:59;10.50;;;9.50;;
45402;SDS011;47427;51.976;5.326;2024-03-25T17:13:00;11.43;;;9.73;;
45402;SDS011;47427;51.976;5.326;2024-03-25T17:16:03;9.77;;;8.88;;
45402;SDS011;47427;51.976;5.326;2024-03-25T17:19:08;12.38;;;8.88;;
45402;SDS011;47427;51.976;5.326;2024-03-25T17:22:11;16.52;;;13.48;;
45402;SDS011;47427;51.976;5.326;2024-03-25T17:25:16;84.80;;;38.50;;
45402;SDS011;47427;51.976;5.326;2024-03-25T17:28:19;42.42;;;24.75;;
45402;SDS011;47427;51.976;5.326;2024-03-25T17:31:21;13.57;;;10.65;;
45402;SDS011;47427;51.976;5.326;2024-03-25T17:34:24;16.25;;;10.90;;
45402;SDS011;47427;51.976;5.326;2024-03-25T17:37:26;14.23;;;9.82;;
45402;SDS011;47427;51.976;5.326;2024-03-25T17:40:28;16.67;;;11.35;;
45402;SDS011;47427;51.976;5.326;2024-03-25T17:43:33;23.63;;;14.40;;
45402;SDS011;47427;51.976;5.326;2024-03-25T17:46:37;80.28;;;43.78;;
45402;SDS011;47427;51.976;5.326;2024-03-25T17:49:39;38.17;;;20.95;;
45402;SDS011;47427;51.976;5.326;2024-03-25T17:52:42;84.75;;;36.35;;
45402;SDS011;47427;51.976;5.326;2024-03-25T17:55:44;87.05;;;33.15;;
45402;SDS011;47427;51.976;5.326;2024-03-25T17:58:47;137.57;;;50.30;;
45402;SDS011;47427;51.976;5.326;2024-03-25T18:01:49;30.10;;;16.05;;
45402;SDS011;47427;51.976;5.326;2024-03-25T18:04:52;45.33;;;24.13;;
45402;SDS011;47427;51.976;5.326;2024-03-25T18:07:55;38.83;;;21.48;;